sensor_id;sensor_type;location;lat;lon;timestamp;temperature;humidity
41469;DHT22;27206;47.032;15.484;2023-06-22T00:00:55;20.40;1.00
41469;DHT22;27206;47.032;15.484;2023-06-22T00:03:22;20.40;1.00
41469;DHT22;27206;47.032;15.484;2023-06-22T00:05:49;20.30;1.00
41469;DHT22;27206;47.032;15.484;2023-06-22T00:08:16;20.30;1.00
41469;DHT22;27206;47.032;15.484;2023-06-22T00:10:42;20.30;1.00
41469;DHT22;27206;47.032;15.484;2023-06-22T00:13:09;20.30;1.00
41469;DHT22;27206;47.032;15.484;2023-06-22T00:15:36;20.30;1.00
41469;DHT22;27206;47.032;15.484;2023-06-22T00:18:02;20.30;1.00
41469;DHT22;27206;47.032;15.484;2023-06-22T00:20:28;20.20;1.00
41469;DHT22;27206;47.032;15.484;2023-06-22T00:22:58;20.20;1.00
41469;DHT22;27206;47.032;15.484;2023-06-22T00:25:24;20.20;1.00
41469;DHT22;27206;47.032;15.484;2023-06-22T00:27:49;20.20;1.00
41469;DHT22;27206;47.032;15.484;2023-06-22T00:30:16;20.20;1.00
41469;DHT22;27206;47.032;15.484;2023-06-22T00:32:42;20.20;1.00
41469;DHT22;27206;47.032;15.484;2023-06-22T00:35:08;20.10;1.00
41469;DHT22;27206;47.032;15.484;2023-06-22T00:37:35;20.10;1.00
41469;DHT22;27206;47.032;15.484;2023-06-22T00:40:01;20.10;1.00
41469;DHT22;27206;47.032;15.484;2023-06-22T00:42:28;20.20;1.00
41469;DHT22;27206;47.032;15.484;2023-06-22T00:44:53;20.20;1.00
41469;DHT22;27206;47.032;15.484;2023-06-22T00:47:19;20.10;1.00
41469;DHT22;27206;47.032;15.484;2023-06-22T00:49:45;20.10;1.00
41469;DHT22;27206;47.032;15.484;2023-06-22T00:52:12;20.10;1.00
41469;DHT22;27206;47.032;15.484;2023-06-22T00:54:48;20.10;1.00
41469;DHT22;27206;47.032;15.484;2023-06-22T00:57:17;20.10;1.00
41469;DHT22;27206;47.032;15.484;2023-06-22T00:59:47;20.00;1.00
41469;DHT22;27206;47.032;15.484;2023-06-22T01:02:13;20.00;1.00
41469;DHT22;27206;47.032;15.484;2023-06-22T01:04:40;20.00;1.00
41469;DHT22;27206;47.032;15.484;2023-06-22T01:07:35;20.00;1.00
41469;DHT22;27206;47.032;15.484;2023-06-22T01:10:20;20.00;1.00
41469;DHT22;27206;47.032;15.484;2023-06-22T01:12:53;20.00;1.00
41469;DHT22;27206;47.032;15.484;2023-06-22T01:15:42;19.90;1.00
41469;DHT22;27206;47.032;15.484;2023-06-22T01:18:11;19.90;1.00
41469;DHT22;27206;47.032;15.484;2023-06-22T01:20:38;19.90;1.00
41469;DHT22;27206;47.032;15.484;2023-06-22T01:23:27;19.90;1.00
41469;DHT22;27206;47.032;15.484;2023-06-22T01:28:47;19.80;1.00
41469;DHT22;27206;47.032;15.484;2023-06-22T01:31:16;19.70;1.00
41469;DHT22;27206;47.032;15.484;2023-06-22T01:33:44;19.60;1.00
41469;DHT22;27206;47.032;15.484;2023-06-22T01:36:11;19.70;1.00
41469;DHT22;27206;47.032;15.484;2023-06-22T01:38:38;19.60;1.00
41469;DHT22;27206;47.032;15.484;2023-06-22T01:41:04;19.60;1.00
41469;DHT22;27206;47.032;15.484;2023-06-22T01:43:32;19.50;1.00
41469;DHT22;27206;47.032;15.484;2023-06-22T01:46:02;19.60;1.00
41469;DHT22;27206;47.032;15.484;2023-06-22T01:48:29;19.50;1.00
41469;DHT22;27206;47.032;15.484;2023-06-22T01:50:55;19.50;1.00
41469;DHT22;27206;47.032;15.484;2023-06-22T01:53:22;19.50;1.00
41469;DHT22;27206;47.032;15.484;2023-06-22T01:55:48;19.40;1.00
41469;DHT22;27206;47.032;15.484;2023-06-22T01:58:14;19.40;1.00
41469;DHT22;27206;47.032;15.484;2023-06-22T02:00:43;19.40;1.00
41469;DHT22;27206;47.032;15.484;2023-06-22T02:03:16;19.40;1.00
41469;DHT22;27206;47.032;15.484;2023-06-22T02:05:51;19.30;1.00
41469;DHT22;27206;47.032;15.484;2023-06-22T02:08:37;19.30;1.00
41469;DHT22;27206;47.032;15.484;2023-06-22T02:11:03;19.20;1.00
41469;DHT22;27206;47.032;15.484;2023-06-22T02:13:31;19.10;1.00
41469;DHT22;27206;47.032;15.484;2023-06-22T02:15:57;19.10;1.00
41469;DHT22;27206;47.032;15.484;2023-06-22T02:18:23;19.10;1.00
41469;DHT22;27206;47.032;15.484;2023-06-22T02:20:49;19.10;1.00
41469;DHT22;27206;47.032;15.484;2023-06-22T02:23:15;19.10;1.00
41469;DHT22;27206;47.032;15.484;2023-06-22T02:25:40;19.00;1.00
41469;DHT22;27206;47.032;15.484;2023-06-22T02:28:09;19.10;1.00
41469;DHT22;27206;47.032;15.484;2023-06-22T02:30:35;19.00;1.00
41469;DHT22;27206;47.032;15.484;2023-06-22T02:33:01;19.00;1.00
41469;DHT22;27206;47.032;15.484;2023-06-22T02:35:29;19.00;1.00
41469;DHT22;27206;47.032;15.484;2023-06-22T02:38:00;19.10;1.00
41469;DHT22;27206;47.032;15.484;2023-06-22T02:40:26;19.00;1.00
41469;DHT22;27206;47.032;15.484;2023-06-22T02:42:52;19.10;1.00
41469;DHT22;27206;47.032;15.484;2023-06-22T02:45:17;19.10;1.00
41469;DHT22;27206;47.032;15.484;2023-06-22T02:47:43;19.10;1.00
41469;DHT22;27206;47.032;15.484;2023-06-22T02:50:09;19.00;1.00
41469;DHT22;27206;47.032;15.484;2023-06-22T02:52:35;19.00;1.00
41469;DHT22;27206;47.032;15.484;2023-06-22T02:55:01;19.00;1.00
41469;DHT22;27206;47.032;15.484;2023-06-22T02:57:27;18.90;1.00
41469;DHT22;27206;47.032;15.484;2023-06-22T02:59:52;18.90;1.00
41469;DHT22;27206;47.032;15.484;2023-06-22T03:02:18;19.00;1.00
41469;DHT22;27206;47.032;15.484;2023-06-22T03:04:46;19.00;1.00
41469;DHT22;27206;47.032;15.484;2023-06-22T03:07:15;19.00;1.00
41469;DHT22;27206;47.032;15.484;2023-06-22T03:09:40;19.00;1.00
41469;DHT22;27206;47.032;15.484;2023-06-22T03:12:08;19.00;1.00
41469;DHT22;27206;47.032;15.484;2023-06-22T03:14:34;19.10;1.00
41469;DHT22;27206;47.032;15.484;2023-06-22T03:17:00;19.10;1.00
41469;DHT22;27206;47.032;15.484;2023-06-22T03:19:29;19.10;1.00
41469;DHT22;27206;47.032;15.484;2023-06-22T03:21:57;19.20;1.00
41469;DHT22;27206;47.032;15.484;2023-06-22T03:24:23;19.20;1.00
41469;DHT22;27206;47.032;15.484;2023-06-22T03:26:48;19.30;1.00
41469;DHT22;27206;47.032;15.484;2023-06-22T03:29:14;19.30;1.00
41469;DHT22;27206;47.032;15.484;2023-06-22T03:31:41;19.20;1.00
41469;DHT22;27206;47.032;15.484;2023-06-22T03:34:06;19.30;1.00
41469;DHT22;27206;47.032;15.484;2023-06-22T03:36:32;19.30;1.00
41469;DHT22;27206;47.032;15.484;2023-06-22T03:38:57;19.30;1.00
41469;DHT22;27206;47.032;15.484;2023-06-22T03:41:23;19.30;1.00
41469;DHT22;27206;47.032;15.484;2023-06-22T03:43:49;19.40;1.00
41469;DHT22;27206;47.032;15.484;2023-06-22T03:46:14;19.40;1.00
41469;DHT22;27206;47.032;15.484;2023-06-22T03:48:40;19.40;1.00
41469;DHT22;27206;47.032;15.484;2023-06-22T03:51:06;19.30;1.00
41469;DHT22;27206;47.032;15.484;2023-06-22T03:53:31;19.30;1.00
41469;DHT22;27206;47.032;15.484;2023-06-22T03:55:57;19.40;1.00
41469;DHT22;27206;47.032;15.484;2023-06-22T03:58:23;19.40;1.00
41469;DHT22;27206;47.032;15.484;2023-06-22T04:00:52;19.40;1.00
41469;DHT22;27206;47.032;15.484;2023-06-22T04:03:19;19.40;1.00
41469;DHT22;27206;47.032;15.484;2023-06-22T04:05:45;19.40;1.00
41469;DHT22;27206;47.032;15.484;2023-06-22T04:08:12;19.40;1.00
41469;DHT22;27206;47.032;15.484;2023-06-22T04:10:38;19.50;1.00
41469;DHT22;27206;47.032;15.484;2023-06-22T04:13:03;19.50;1.00
41469;DHT22;27206;47.032;15.484;2023-06-22T04:15:29;19.60;1.00
41469;DHT22;27206;47.032;15.484;2023-06-22T04:17:56;19.60;1.00
41469;DHT22;27206;47.032;15.484;2023-06-22T04:20:22;19.60;1.00
41469;DHT22;27206;47.032;15.484;2023-06-22T04:22:51;19.70;1.00
41469;DHT22;27206;47.032;15.484;2023-06-22T04:25:17;19.80;1.00
41469;DHT22;27206;47.032;15.484;2023-06-22T04:27:43;19.80;1.00
41469;DHT22;27206;47.032;15.484;2023-06-22T04:30:08;19.70;1.00
41469;DHT22;27206;47.032;15.484;2023-06-22T04:32:35;19.70;1.00
41469;DHT22;27206;47.032;15.484;2023-06-22T04:35:05;19.70;1.00
41469;DHT22;27206;47.032;15.484;2023-06-22T04:37:32;19.80;1.00
41469;DHT22;27206;47.032;15.484;2023-06-22T04:39:57;19.80;1.00
41469;DHT22;27206;47.032;15.484;2023-06-22T04:42:25;19.80;1.00
41469;DHT22;27206;47.032;15.484;2023-06-22T04:44:51;19.90;1.00
41469;DHT22;27206;47.032;15.484;2023-06-22T04:47:16;20.00;1.00
41469;DHT22;27206;47.032;15.484;2023-06-22T04:49:42;20.10;1.00
41469;DHT22;27206;47.032;15.484;2023-06-22T04:52:11;20.10;1.00
41469;DHT22;27206;47.032;15.484;2023-06-22T04:54:39;20.20;1.00
41469;DHT22;27206;47.032;15.484;2023-06-22T04:57:07;20.20;1.00
41469;DHT22;27206;47.032;15.484;2023-06-22T04:59:37;20.20;1.00
41469;DHT22;27206;47.032;15.484;2023-06-22T05:02:05;20.30;1.00
41469;DHT22;27206;47.032;15.484;2023-06-22T05:04:31;20.30;1.00
41469;DHT22;27206;47.032;15.484;2023-06-22T05:06:58;20.40;1.00
41469;DHT22;27206;47.032;15.484;2023-06-22T05:09:25;20.40;1.00
41469;DHT22;27206;47.032;15.484;2023-06-22T05:11:51;20.50;1.00
41469;DHT22;27206;47.032;15.484;2023-06-22T05:14:17;20.60;1.00
41469;DHT22;27206;47.032;15.484;2023-06-22T05:16:44;20.60;1.00
41469;DHT22;27206;47.032;15.484;2023-06-22T05:19:10;20.70;1.00
41469;DHT22;27206;47.032;15.484;2023-06-22T05:21:36;20.70;1.00
41469;DHT22;27206;47.032;15.484;2023-06-22T05:24:01;20.80;1.00
41469;DHT22;27206;47.032;15.484;2023-06-22T05:26:32;20.90;1.00
41469;DHT22;27206;47.032;15.484;2023-06-22T05:28:58;21.00;1.00
41469;DHT22;27206;47.032;15.484;2023-06-22T05:31:24;21.00;1.00
41469;DHT22;27206;47.032;15.484;2023-06-22T05:33:52;21.00;99.90
41469;DHT22;27206;47.032;15.484;2023-06-22T05:36:18;21.10;99.90
41469;DHT22;27206;47.032;15.484;2023-06-22T05:38:45;21.10;99.90
41469;DHT22;27206;47.032;15.484;2023-06-22T05:41:11;21.20;99.90
41469;DHT22;27206;47.032;15.484;2023-06-22T05:43:37;21.30;99.90
41469;DHT22;27206;47.032;15.484;2023-06-22T05:46:04;21.30;99.90
41469;DHT22;27206;47.032;15.484;2023-06-22T05:48:30;21.50;99.90
41469;DHT22;27206;47.032;15.484;2023-06-22T05:50:55;21.50;99.90
41469;DHT22;27206;47.032;15.484;2023-06-22T05:53:21;21.60;99.90
41469;DHT22;27206;47.032;15.484;2023-06-22T05:55:47;21.60;99.90
41469;DHT22;27206;47.032;15.484;2023-06-22T05:58:12;21.70;99.90
41469;DHT22;27206;47.032;15.484;2023-06-22T06:00:41;21.80;99.90
41469;DHT22;27206;47.032;15.484;2023-06-22T06:03:08;21.80;99.90
41469;DHT22;27206;47.032;15.484;2023-06-22T06:05:34;21.90;99.90
41469;DHT22;27206;47.032;15.484;2023-06-22T06:08:01;22.00;99.90
41469;DHT22;27206;47.032;15.484;2023-06-22T06:10:27;22.00;99.90
41469;DHT22;27206;47.032;15.484;2023-06-22T06:12:55;22.00;99.90
41469;DHT22;27206;47.032;15.484;2023-06-22T06:15:21;22.10;99.90
41469;DHT22;27206;47.032;15.484;2023-06-22T06:20:13;22.30;99.90
41469;DHT22;27206;47.032;15.484;2023-06-22T06:22:38;22.40;99.90
41469;DHT22;27206;47.032;15.484;2023-06-22T06:25:05;22.50;99.90
41469;DHT22;27206;47.032;15.484;2023-06-22T06:27:31;22.50;99.90
41469;DHT22;27206;47.032;15.484;2023-06-22T06:29:56;22.60;99.90
41469;DHT22;27206;47.032;15.484;2023-06-22T06:32:22;22.70;99.90
41469;DHT22;27206;47.032;15.484;2023-06-22T06:34:48;22.70;99.90
41469;DHT22;27206;47.032;15.484;2023-06-22T06:37:13;22.80;99.90
41469;DHT22;27206;47.032;15.484;2023-06-22T06:39:39;22.90;99.90
41469;DHT22;27206;47.032;15.484;2023-06-22T06:42:05;23.00;99.90
41469;DHT22;27206;47.032;15.484;2023-06-22T06:44:31;23.00;99.90
41469;DHT22;27206;47.032;15.484;2023-06-22T06:46:56;23.10;99.90
41469;DHT22;27206;47.032;15.484;2023-06-22T06:49:22;23.20;99.90
41469;DHT22;27206;47.032;15.484;2023-06-22T06:51:48;23.30;99.90
41469;DHT22;27206;47.032;15.484;2023-06-22T06:54:14;23.30;99.90
41469;DHT22;27206;47.032;15.484;2023-06-22T06:56:39;23.40;99.90
41469;DHT22;27206;47.032;15.484;2023-06-22T06:59:05;23.60;99.90
41469;DHT22;27206;47.032;15.484;2023-06-22T07:01:30;23.60;99.90
41469;DHT22;27206;47.032;15.484;2023-06-22T07:03:59;23.70;99.90
41469;DHT22;27206;47.032;15.484;2023-06-22T07:06:26;23.80;99.90
41469;DHT22;27206;47.032;15.484;2023-06-22T07:08:55;23.90;99.90
41469;DHT22;27206;47.032;15.484;2023-06-22T07:11:21;24.00;99.90
41469;DHT22;27206;47.032;15.484;2023-06-22T07:13:46;24.10;99.90
41469;DHT22;27206;47.032;15.484;2023-06-22T07:16:12;24.10;99.90
41469;DHT22;27206;47.032;15.484;2023-06-22T07:18:39;24.20;99.90
41469;DHT22;27206;47.032;15.484;2023-06-22T07:21:05;24.20;99.90
41469;DHT22;27206;47.032;15.484;2023-06-22T07:23:32;24.30;99.90
41469;DHT22;27206;47.032;15.484;2023-06-22T07:25:58;24.40;99.90
41469;DHT22;27206;47.032;15.484;2023-06-22T07:28:27;24.50;99.90
41469;DHT22;27206;47.032;15.484;2023-06-22T07:30:53;24.70;99.90
41469;DHT22;27206;47.032;15.484;2023-06-22T07:33:19;24.70;99.90
41469;DHT22;27206;47.032;15.484;2023-06-22T07:35:45;24.80;99.90
41469;DHT22;27206;47.032;15.484;2023-06-22T07:38:12;24.90;99.90
41469;DHT22;27206;47.032;15.484;2023-06-22T07:40:38;25.00;99.90
41469;DHT22;27206;47.032;15.484;2023-06-22T07:43:03;25.20;99.90
41469;DHT22;27206;47.032;15.484;2023-06-22T07:45:29;25.40;99.90
41469;DHT22;27206;47.032;15.484;2023-06-22T07:47:55;25.40;99.90
41469;DHT22;27206;47.032;15.484;2023-06-22T07:50:21;25.50;99.90
41469;DHT22;27206;47.032;15.484;2023-06-22T07:52:46;25.50;99.90
41469;DHT22;27206;47.032;15.484;2023-06-22T07:55:13;25.60;99.90
41469;DHT22;27206;47.032;15.484;2023-06-22T07:57:39;25.60;99.90
41469;DHT22;27206;47.032;15.484;2023-06-22T08:00:07;25.70;99.90
41469;DHT22;27206;47.032;15.484;2023-06-22T08:02:40;25.60;99.90
41469;DHT22;27206;47.032;15.484;2023-06-22T08:05:07;25.70;99.90
41469;DHT22;27206;47.032;15.484;2023-06-22T08:07:34;25.80;99.90
41469;DHT22;27206;47.032;15.484;2023-06-22T08:10:03;25.90;99.90
41469;DHT22;27206;47.032;15.484;2023-06-22T08:12:29;26.00;99.90
41469;DHT22;27206;47.032;15.484;2023-06-22T08:14:55;26.20;99.90
41469;DHT22;27206;47.032;15.484;2023-06-22T08:17:22;26.30;99.90
41469;DHT22;27206;47.032;15.484;2023-06-22T08:19:48;26.30;99.90
41469;DHT22;27206;47.032;15.484;2023-06-22T08:22:15;26.30;99.90
41469;DHT22;27206;47.032;15.484;2023-06-22T08:24:40;26.50;99.90
41469;DHT22;27206;47.032;15.484;2023-06-22T08:27:10;26.50;99.90
41469;DHT22;27206;47.032;15.484;2023-06-22T08:29:40;26.60;99.90
41469;DHT22;27206;47.032;15.484;2023-06-22T08:32:08;26.80;99.90
41469;DHT22;27206;47.032;15.484;2023-06-22T08:34:34;26.90;99.90
41469;DHT22;27206;47.032;15.484;2023-06-22T08:37:00;27.10;99.90
41469;DHT22;27206;47.032;15.484;2023-06-22T08:39:26;27.10;99.90
41469;DHT22;27206;47.032;15.484;2023-06-22T08:41:53;27.10;99.90
41469;DHT22;27206;47.032;15.484;2023-06-22T08:44:19;27.20;99.90
41469;DHT22;27206;47.032;15.484;2023-06-22T08:46:45;27.20;99.90
41469;DHT22;27206;47.032;15.484;2023-06-22T08:49:10;27.30;99.90
41469;DHT22;27206;47.032;15.484;2023-06-22T08:51:36;27.30;99.90
41469;DHT22;27206;47.032;15.484;2023-06-22T08:54:02;27.50;99.90
41469;DHT22;27206;47.032;15.484;2023-06-22T08:56:27;27.60;99.90
41469;DHT22;27206;47.032;15.484;2023-06-22T08:58:53;27.70;99.90
41469;DHT22;27206;47.032;15.484;2023-06-22T09:01:18;27.80;99.90
41469;DHT22;27206;47.032;15.484;2023-06-22T09:03:44;28.00;99.90
41469;DHT22;27206;47.032;15.484;2023-06-22T09:06:19;28.10;99.90
41469;DHT22;27206;47.032;15.484;2023-06-22T09:08:45;28.10;99.90
41469;DHT22;27206;47.032;15.484;2023-06-22T09:11:11;28.20;99.90
41469;DHT22;27206;47.032;15.484;2023-06-22T09:13:37;28.30;99.90
41469;DHT22;27206;47.032;15.484;2023-06-22T09:16:02;28.40;99.90
41469;DHT22;27206;47.032;15.484;2023-06-22T09:18:28;28.60;99.90
41469;DHT22;27206;47.032;15.484;2023-06-22T09:20:54;28.70;99.90
41469;DHT22;27206;47.032;15.484;2023-06-22T09:23:19;29.00;99.90
41469;DHT22;27206;47.032;15.484;2023-06-22T09:25:45;28.90;99.90
41469;DHT22;27206;47.032;15.484;2023-06-22T09:28:13;29.00;99.90
41469;DHT22;27206;47.032;15.484;2023-06-22T09:30:39;29.20;99.90
41469;DHT22;27206;47.032;15.484;2023-06-22T09:33:05;29.50;99.90
41469;DHT22;27206;47.032;15.484;2023-06-22T09:35:30;29.90;99.90
41469;DHT22;27206;47.032;15.484;2023-06-22T09:37:56;29.40;99.90
41469;DHT22;27206;47.032;15.484;2023-06-22T09:40:21;29.70;99.90
41469;DHT22;27206;47.032;15.484;2023-06-22T09:42:47;30.00;99.90
41469;DHT22;27206;47.032;15.484;2023-06-22T09:45:12;29.90;99.90
41469;DHT22;27206;47.032;15.484;2023-06-22T09:47:38;29.80;99.90
41469;DHT22;27206;47.032;15.484;2023-06-22T09:50:05;29.90;99.90
41469;DHT22;27206;47.032;15.484;2023-06-22T09:52:30;30.40;99.90
41469;DHT22;27206;47.032;15.484;2023-06-22T09:54:56;30.40;99.90
41469;DHT22;27206;47.032;15.484;2023-06-22T09:57:22;30.50;99.90
41469;DHT22;27206;47.032;15.484;2023-06-22T09:59:47;30.40;99.90
41469;DHT22;27206;47.032;15.484;2023-06-22T10:02:13;30.50;99.90
41469;DHT22;27206;47.032;15.484;2023-06-22T10:04:39;30.70;99.90
41469;DHT22;27206;47.032;15.484;2023-06-22T10:07:05;30.60;99.90
41469;DHT22;27206;47.032;15.484;2023-06-22T10:09:31;31.00;99.90
41469;DHT22;27206;47.032;15.484;2023-06-22T10:11:57;30.80;99.90
41469;DHT22;27206;47.032;15.484;2023-06-22T10:14:22;31.20;99.90
41469;DHT22;27206;47.032;15.484;2023-06-22T10:16:50;30.90;99.90
41469;DHT22;27206;47.032;15.484;2023-06-22T10:19:16;31.00;99.90
41469;DHT22;27206;47.032;15.484;2023-06-22T10:21:42;30.70;99.90
41469;DHT22;27206;47.032;15.484;2023-06-22T10:24:07;30.80;99.90
41469;DHT22;27206;47.032;15.484;2023-06-22T10:26:34;31.10;99.90
41469;DHT22;27206;47.032;15.484;2023-06-22T10:29:00;31.20;99.90
41469;DHT22;27206;47.032;15.484;2023-06-22T10:31:26;31.00;99.90
41469;DHT22;27206;47.032;15.484;2023-06-22T10:33:53;31.30;99.90
41469;DHT22;27206;47.032;15.484;2023-06-22T10:36:19;31.70;99.90
41469;DHT22;27206;47.032;15.484;2023-06-22T10:38:45;31.70;99.90
41469;DHT22;27206;47.032;15.484;2023-06-22T10:41:12;31.60;99.90
41469;DHT22;27206;47.032;15.484;2023-06-22T10:43:38;31.60;99.90
41469;DHT22;27206;47.032;15.484;2023-06-22T10:46:04;31.60;99.90
41469;DHT22;27206;47.032;15.484;2023-06-22T10:48:29;31.80;99.90
41469;DHT22;27206;47.032;15.484;2023-06-22T10:50:55;31.90;99.90
41469;DHT22;27206;47.032;15.484;2023-06-22T10:53:21;32.20;99.90
41469;DHT22;27206;47.032;15.484;2023-06-22T10:55:47;32.40;99.90
41469;DHT22;27206;47.032;15.484;2023-06-22T10:58:13;32.50;99.90
41469;DHT22;27206;47.032;15.484;2023-06-22T11:00:39;32.40;99.90
41469;DHT22;27206;47.032;15.484;2023-06-22T11:03:04;32.40;99.90
41469;DHT22;27206;47.032;15.484;2023-06-22T11:05:30;32.30;99.90
41469;DHT22;27206;47.032;15.484;2023-06-22T11:07:55;32.30;99.90
41469;DHT22;27206;47.032;15.484;2023-06-22T11:10:21;32.40;99.90
41469;DHT22;27206;47.032;15.484;2023-06-22T11:12:47;32.50;99.90
41469;DHT22;27206;47.032;15.484;2023-06-22T11:15:12;32.80;99.90
41469;DHT22;27206;47.032;15.484;2023-06-22T11:17:38;32.80;99.90
41469;DHT22;27206;47.032;15.484;2023-06-22T11:20:05;32.80;99.90
41469;DHT22;27206;47.032;15.484;2023-06-22T11:22:39;33.00;99.90
41469;DHT22;27206;47.032;15.484;2023-06-22T11:25:05;33.20;99.90
41469;DHT22;27206;47.032;15.484;2023-06-22T11:27:31;33.10;99.90
41469;DHT22;27206;47.032;15.484;2023-06-22T11:29:57;33.10;99.90
41469;DHT22;27206;47.032;15.484;2023-06-22T11:32:23;32.90;99.90
41469;DHT22;27206;47.032;15.484;2023-06-22T11:34:49;32.90;99.90
41469;DHT22;27206;47.032;15.484;2023-06-22T11:37:14;33.20;99.90
41469;DHT22;27206;47.032;15.484;2023-06-22T11:39:41;33.30;99.90
41469;DHT22;27206;47.032;15.484;2023-06-22T11:42:07;33.50;99.90
41469;DHT22;27206;47.032;15.484;2023-06-22T11:44:34;33.80;99.90
41469;DHT22;27206;47.032;15.484;2023-06-22T11:46:59;33.70;99.90
41469;DHT22;27206;47.032;15.484;2023-06-22T11:49:26;33.90;99.90
41469;DHT22;27206;47.032;15.484;2023-06-22T11:51:52;33.90;99.90
41469;DHT22;27206;47.032;15.484;2023-06-22T11:54:18;33.80;99.90
41469;DHT22;27206;47.032;15.484;2023-06-22T11:56:44;34.10;99.90
41469;DHT22;27206;47.032;15.484;2023-06-22T11:59:09;34.20;99.90
41469;DHT22;27206;47.032;15.484;2023-06-22T12:01:35;34.10;99.90
41469;DHT22;27206;47.032;15.484;2023-06-22T12:04:01;34.10;99.90
41469;DHT22;27206;47.032;15.484;2023-06-22T12:06:26;34.20;99.90
41469;DHT22;27206;47.032;15.484;2023-06-22T12:08:52;34.70;99.90
41469;DHT22;27206;47.032;15.484;2023-06-22T12:11:18;34.70;99.90
41469;DHT22;27206;47.032;15.484;2023-06-22T12:13:43;34.60;99.90
41469;DHT22;27206;47.032;15.484;2023-06-22T12:16:09;34.80;99.90
41469;DHT22;27206;47.032;15.484;2023-06-22T12:18:34;34.90;99.90
41469;DHT22;27206;47.032;15.484;2023-06-22T12:21:00;34.80;99.90
41469;DHT22;27206;47.032;15.484;2023-06-22T12:23:25;34.90;99.90
41469;DHT22;27206;47.032;15.484;2023-06-22T12:25:51;35.00;99.90
41469;DHT22;27206;47.032;15.484;2023-06-22T12:28:17;35.10;99.90
41469;DHT22;27206;47.032;15.484;2023-06-22T12:30:42;35.10;99.90
41469;DHT22;27206;47.032;15.484;2023-06-22T12:33:08;35.50;99.90
41469;DHT22;27206;47.032;15.484;2023-06-22T12:35:34;35.60;99.90
41469;DHT22;27206;47.032;15.484;2023-06-22T12:38:00;36.10;99.90
41469;DHT22;27206;47.032;15.484;2023-06-22T12:40:25;36.10;99.90
41469;DHT22;27206;47.032;15.484;2023-06-22T12:42:51;35.80;99.90
41469;DHT22;27206;47.032;15.484;2023-06-22T12:45:17;35.20;99.90
41469;DHT22;27206;47.032;15.484;2023-06-22T12:47:42;35.10;99.90
41469;DHT22;27206;47.032;15.484;2023-06-22T12:50:08;35.60;99.90
41469;DHT22;27206;47.032;15.484;2023-06-22T12:52:36;35.50;99.90
41469;DHT22;27206;47.032;15.484;2023-06-22T12:55:04;35.90;99.90
41469;DHT22;27206;47.032;15.484;2023-06-22T12:57:30;36.20;99.90
41469;DHT22;27206;47.032;15.484;2023-06-22T12:59:55;35.90;99.90
41469;DHT22;27206;47.032;15.484;2023-06-22T13:02:22;36.30;99.90
41469;DHT22;27206;47.032;15.484;2023-06-22T13:04:48;36.50;99.90
41469;DHT22;27206;47.032;15.484;2023-06-22T13:07:13;36.50;99.90
41469;DHT22;27206;47.032;15.484;2023-06-22T13:09:39;36.30;99.90
41469;DHT22;27206;47.032;15.484;2023-06-22T13:12:05;35.90;99.90
41469;DHT22;27206;47.032;15.484;2023-06-22T13:14:30;36.40;99.90
41469;DHT22;27206;47.032;15.484;2023-06-22T13:16:56;37.50;99.90
41469;DHT22;27206;47.032;15.484;2023-06-22T13:19:22;37.70;99.90
41469;DHT22;27206;47.032;15.484;2023-06-22T13:21:47;37.50;99.90
41469;DHT22;27206;47.032;15.484;2023-06-22T13:24:13;37.40;99.90
41469;DHT22;27206;47.032;15.484;2023-06-22T13:26:38;36.50;99.90
41469;DHT22;27206;47.032;15.484;2023-06-22T13:29:04;36.60;99.90
41469;DHT22;27206;47.032;15.484;2023-06-22T13:31:30;37.10;99.90
41469;DHT22;27206;47.032;15.484;2023-06-22T13:33:55;37.40;99.90
41469;DHT22;27206;47.032;15.484;2023-06-22T13:36:21;37.70;99.90
41469;DHT22;27206;47.032;15.484;2023-06-22T13:38:48;37.30;99.90
41469;DHT22;27206;47.032;15.484;2023-06-22T13:41:14;36.90;99.90
41469;DHT22;27206;47.032;15.484;2023-06-22T13:43:40;36.60;99.90
41469;DHT22;27206;47.032;15.484;2023-06-22T13:46:05;36.70;99.90
41469;DHT22;27206;47.032;15.484;2023-06-22T13:48:31;36.70;99.90
41469;DHT22;27206;47.032;15.484;2023-06-22T13:50:57;36.20;99.90
41469;DHT22;27206;47.032;15.484;2023-06-22T13:53:25;36.10;99.90
41469;DHT22;27206;47.032;15.484;2023-06-22T13:55:51;36.50;99.90
41469;DHT22;27206;47.032;15.484;2023-06-22T13:58:17;36.90;99.90
41469;DHT22;27206;47.032;15.484;2023-06-22T14:00:45;37.20;99.90
41469;DHT22;27206;47.032;15.484;2023-06-22T14:03:10;37.00;99.90
41469;DHT22;27206;47.032;15.484;2023-06-22T14:05:36;37.10;99.90
41469;DHT22;27206;47.032;15.484;2023-06-22T14:08:01;36.90;99.90
41469;DHT22;27206;47.032;15.484;2023-06-22T14:10:27;36.70;99.90
41469;DHT22;27206;47.032;15.484;2023-06-22T14:12:53;36.80;99.90
41469;DHT22;27206;47.032;15.484;2023-06-22T14:15:19;37.20;99.90
41469;DHT22;27206;47.032;15.484;2023-06-22T14:17:44;37.30;99.90
41469;DHT22;27206;47.032;15.484;2023-06-22T14:20:10;37.10;99.90
41469;DHT22;27206;47.032;15.484;2023-06-22T14:22:36;37.20;99.90
41469;DHT22;27206;47.032;15.484;2023-06-22T14:25:03;36.70;99.90
41469;DHT22;27206;47.032;15.484;2023-06-22T14:27:29;36.70;99.90
41469;DHT22;27206;47.032;15.484;2023-06-22T14:29:55;36.50;99.90
41469;DHT22;27206;47.032;15.484;2023-06-22T14:32:21;36.50;99.90
41469;DHT22;27206;47.032;15.484;2023-06-22T14:34:46;36.70;99.90
41469;DHT22;27206;47.032;15.484;2023-06-22T14:37:12;37.10;99.90
41469;DHT22;27206;47.032;15.484;2023-06-22T14:39:40;37.20;99.90
41469;DHT22;27206;47.032;15.484;2023-06-22T14:42:06;36.80;99.90
41469;DHT22;27206;47.032;15.484;2023-06-22T14:44:32;37.00;99.90
41469;DHT22;27206;47.032;15.484;2023-06-22T14:46:58;36.80;99.90
41469;DHT22;27206;47.032;15.484;2023-06-22T14:49:24;36.30;99.90
41469;DHT22;27206;47.032;15.484;2023-06-22T14:51:50;36.40;99.90
41469;DHT22;27206;47.032;15.484;2023-06-22T14:54:15;36.10;99.90
41469;DHT22;27206;47.032;15.484;2023-06-22T14:56:41;36.30;99.90
41469;DHT22;27206;47.032;15.484;2023-06-22T14:59:09;36.60;99.90
41469;DHT22;27206;47.032;15.484;2023-06-22T15:01:34;36.60;99.90
41469;DHT22;27206;47.032;15.484;2023-06-22T15:04:00;37.00;99.90
41469;DHT22;27206;47.032;15.484;2023-06-22T15:06:26;36.80;99.90
41469;DHT22;27206;47.032;15.484;2023-06-22T15:08:52;36.60;99.90
41469;DHT22;27206;47.032;15.484;2023-06-22T15:11:18;36.70;99.90
41469;DHT22;27206;47.032;15.484;2023-06-22T15:13:44;37.10;99.90
41469;DHT22;27206;47.032;15.484;2023-06-22T15:16:09;36.70;99.90
41469;DHT22;27206;47.032;15.484;2023-06-22T15:18:35;36.20;99.90
41469;DHT22;27206;47.032;15.484;2023-06-22T15:21:03;35.80;99.90
41469;DHT22;27206;47.032;15.484;2023-06-22T15:23:29;35.80;99.90